Tetovo, Macedonia
Current Conditions -  °F | °C
As of 10:00 PM on Thursday 23 Oct 2014 (Local Time) from LWSK Reporting Station
Scattered Clouds Scattered Clouds  
Wind Chill: 39°   Ceiling: Unl
Heat Index: 39°   Visibility: 6mi
Dew Point: 36°   Wind: 2mph
Humidity: 87%   Direction: 90°E
Pressure: 29.8"   Gusts: NA
Location:  42.01°N, 20.97°E
Report Text: LWSK 232000Z 09002KT 9999 SCT060 04/02 Q1009 NOSIG
Loading
Personal Weather Stations






























Interactive Weather Map
Tropical Storm Tracking
New forecast layout! Learn more

10-Day Weather Forecast

Advertisements
Track Severe Weather on mobile